SDM weather

Brown Field Municipal Airport
San Diego, California, United States

Public forecast

Using degrees Fahrenheit for public forecast. Weather courtesy of forecast.io.

Current aviation weather report (METAR) for Brown Field Municipal Airport

Retrieved 2019/12/06 14:53 UTC (28 minutes ago):

KSDM 061453Z AUTO 12007KT 10SM CLR 11/07 A3011 RMK AO2 SLP196 T01060072 53009

Closest aviation forecast (TAF) to Brown Field Municipal Airport

Closest forecast is General Abelardo L. Rodríguez International Airport, 1.9 nm (3.6 km) SSE. Retrieved 2019/12/06 12:30 UTC (3 hours ago):

TAF MMTJ 061023Z 0612/0718 00000KT P6SM OVC200 TX19/0621Z TN13/0612Z FM061800 23008KT P6SM SCT025 BKN220 FM070600 35005KT P6SM SCT220 BECMG 0711/0713 00000KT